sensor_id;sensor_type;location;lat;lon;timestamp;pressure;altitude;pressure_sealevel;temperature;humidity
40075;BME280;26529;51.530;11.754;2023-04-08T00:02:24;100509.19;;;20.32;44.56
40075;BME280;26529;51.530;11.754;2023-04-08T00:04:49;100506.53;;;20.32;44.54
40075;BME280;26529;51.530;11.754;2023-04-08T00:07:15;100510.06;;;20.33;44.51
40075;BME280;26529;51.530;11.754;2023-04-08T00:09:40;100501.22;;;20.32;44.44
40075;BME280;26529;51.530;11.754;2023-04-08T00:12:06;100506.53;;;20.32;44.30
40075;BME280;26529;51.530;11.754;2023-04-08T00:14:31;100505.78;;;20.30;44.36
40075;BME280;26529;51.530;11.754;2023-04-08T00:16:57;100506.75;;;20.29;44.54
40075;BME280;26529;51.530;11.754;2023-04-08T00:19:23;100504.09;;;20.29;44.52
40075;BME280;26529;51.530;11.754;2023-04-08T00:21:49;100499.69;;;20.28;44.57
40075;BME280;26529;51.530;11.754;2023-04-08T00:24:16;100501.41;;;20.29;44.49
40075;BME280;26529;51.530;11.754;2023-04-08T00:26:41;100496.09;;;20.29;44.43
40075;BME280;26529;51.530;11.754;2023-04-08T00:29:07;100490.75;;;20.29;44.60
40075;BME280;26529;51.530;11.754;2023-04-08T00:31:33;100499.69;;;20.28;44.39
40075;BME280;26529;51.530;11.754;2023-04-08T00:33:58;100495.22;;;20.29;44.34
40075;BME280;26529;51.530;11.754;2023-04-08T00:36:24;100494.34;;;20.28;44.56
40075;BME280;26529;51.530;11.754;2023-04-08T00:38:52;100497.16;;;20.27;44.42
40075;BME280;26529;51.530;11.754;2023-04-08T00:41:17;100505.22;;;20.25;44.53
40075;BME280;26529;51.530;11.754;2023-04-08T00:43:43;100503.44;;;20.26;44.58
40075;BME280;26529;51.530;11.754;2023-04-08T00:46:09;100511.28;;;20.27;44.53
40075;BME280;26529;51.530;11.754;2023-04-08T00:48:35;100506.94;;;20.26;44.57
40075;BME280;26529;51.530;11.754;2023-04-08T00:51:00;100506.09;;;20.26;44.45
40075;BME280;26529;51.530;11.754;2023-04-08T00:53:26;100506.94;;;20.26;44.52
40075;BME280;26529;51.530;11.754;2023-04-08T00:55:52;100502.56;;;20.25;44.40
40075;BME280;26529;51.530;11.754;2023-04-08T00:58:17;100500.63;;;20.27;44.42
40075;BME280;26529;51.530;11.754;2023-04-08T01:00:50;100503.53;;;20.24;44.48
40075;BME280;26529;51.530;11.754;2023-04-08T01:03:27;100492.88;;;20.24;44.34
40075;BME280;26529;51.530;11.754;2023-04-08T01:06:10;100503.53;;;20.24;44.55
40075;BME280;26529;51.530;11.754;2023-04-08T01:08:39;100497.41;;;20.22;44.50
40075;BME280;26529;51.530;11.754;2023-04-08T01:11:10;100507.97;;;20.24;44.48
40075;BME280;26529;51.530;11.754;2023-04-08T01:13:39;100502.75;;;20.22;44.55
40075;BME280;26529;51.530;11.754;2023-04-08T01:16:12;100504.47;;;20.23;44.57
40075;BME280;26529;51.530;11.754;2023-04-08T01:18:40;100501.81;;;20.23;44.47
40075;BME280;26529;51.530;11.754;2023-04-08T01:21:08;100504.47;;;20.23;44.49
40075;BME280;26529;51.530;11.754;2023-04-08T01:24:02;100500.06;;;20.22;44.43
40075;BME280;26529;51.530;11.754;2023-04-08T01:26:29;100500.06;;;20.22;44.69
40075;BME280;26529;51.530;11.754;2023-04-08T01:28:58;100498.38;;;20.21;44.54
40075;BME280;26529;51.530;11.754;2023-04-08T01:31:25;100506.38;;;20.21;44.49
40075;BME280;26529;51.530;11.754;2023-04-08T01:33:52;100503.69;;;20.21;44.58
40075;BME280;26529;51.530;11.754;2023-04-08T01:36:21;100503.69;;;20.21;44.61
40075;BME280;26529;51.530;11.754;2023-04-08T01:38:49;100509.91;;;20.22;44.37
40075;BME280;26529;51.530;11.754;2023-04-08T01:41:16;100505.53;;;20.20;44.65
40075;BME280;26529;51.530;11.754;2023-04-08T01:43:43;100502.88;;;20.20;44.77
40075;BME280;26529;51.530;11.754;2023-04-08T01:46:10;100502.88;;;20.20;44.41
40075;BME280;26529;51.530;11.754;2023-04-08T01:48:37;100497.53;;;20.20;44.57
40075;BME280;26529;51.530;11.754;2023-04-08T01:51:04;100502.00;;;20.20;44.68
40075;BME280;26529;51.530;11.754;2023-04-08T01:53:30;100502.94;;;20.19;44.62
40075;BME280;26529;51.530;11.754;2023-04-08T01:56:08;100496.66;;;20.20;44.39
40075;BME280;26529;51.530;11.754;2023-04-08T01:58:41;100506.56;;;20.18;44.58
40075;BME280;26529;51.530;11.754;2023-04-08T02:01:13;100502.09;;;20.18;44.52
40075;BME280;26529;51.530;11.754;2023-04-08T02:03:42;100501.25;;;20.18;44.53
40075;BME280;26529;51.530;11.754;2023-04-08T02:06:08;100503.03;;;20.17;44.60
40075;BME280;26529;51.530;11.754;2023-04-08T02:08:34;100502.22;;;20.17;44.66
40075;BME280;26529;51.530;11.754;2023-04-08T02:11:01;100498.59;;;20.18;44.53
40075;BME280;26529;51.530;11.754;2023-04-08T02:13:28;100502.22;;;20.17;44.59
40075;BME280;26529;51.530;11.754;2023-04-08T02:16:02;100509.31;;;20.16;44.60
40075;BME280;26529;51.530;11.754;2023-04-08T02:18:29;100511.91;;;20.18;44.53
40075;BME280;26529;51.530;11.754;2023-04-08T02:21:04;100510.19;;;20.17;44.60
40075;BME280;26529;51.530;11.754;2023-04-08T02:23:34;100510.28;;;20.15;44.35
40075;BME280;26529;51.530;11.754;2023-04-08T02:26:03;100511.16;;;20.16;44.59
40075;BME280;26529;51.530;11.754;2023-04-08T02:28:33;100514.75;;;20.15;44.46
40075;BME280;26529;51.530;11.754;2023-04-08T02:31:00;100510.28;;;20.15;44.60
40075;BME280;26529;51.530;11.754;2023-04-08T02:33:27;100516.47;;;20.16;44.54
40075;BME280;26529;51.530;11.754;2023-04-08T02:35:53;100520.84;;;20.17;44.32
40075;BME280;26529;51.530;11.754;2023-04-08T02:38:20;100515.59;;;20.15;44.52
40075;BME280;26529;51.530;11.754;2023-04-08T02:40:48;100513.03;;;20.14;44.59
40075;BME280;26529;51.530;11.754;2023-04-08T02:43:14;100512.19;;;20.13;44.50
40075;BME280;26529;51.530;11.754;2023-04-08T02:45:41;100520.06;;;20.15;44.46
40075;BME280;26529;51.530;11.754;2023-04-08T02:48:08;100513.91;;;20.14;44.55
40075;BME280;26529;51.530;11.754;2023-04-08T02:50:34;100514.00;;;20.13;44.61
40075;BME280;26529;51.530;11.754;2023-04-08T02:52:59;100516.66;;;20.13;44.59
40075;BME280;26529;51.530;11.754;2023-04-08T02:55:25;100511.25;;;20.14;44.57
40075;BME280;26529;51.530;11.754;2023-04-08T02:57:50;100509.63;;;20.12;44.68
40075;BME280;26529;51.530;11.754;2023-04-08T03:00:16;100510.50;;;20.12;44.54
40075;BME280;26529;51.530;11.754;2023-04-08T03:02:42;100504.31;;;20.12;44.59
40075;BME280;26529;51.530;11.754;2023-04-08T03:05:08;100502.38;;;20.14;44.57
40075;BME280;26529;51.530;11.754;2023-04-08T03:07:34;100506.00;;;20.13;44.60
40075;BME280;26529;51.530;11.754;2023-04-08T03:10:00;100511.34;;;20.13;44.56
40075;BME280;26529;51.530;11.754;2023-04-08T03:12:26;100511.34;;;20.13;44.52
40075;BME280;26529;51.530;11.754;2023-04-08T03:14:52;100511.34;;;20.13;44.55
40075;BME280;26529;51.530;11.754;2023-04-08T03:17:17;100518.56;;;20.11;44.60
40075;BME280;26529;51.530;11.754;2023-04-08T03:19:43;100514.00;;;20.13;44.61
40075;BME280;26529;51.530;11.754;2023-04-08T03:22:08;100520.28;;;20.12;44.59
40075;BME280;26529;51.530;11.754;2023-04-08T03:24:35;100513.25;;;20.11;44.54
40075;BME280;26529;51.530;11.754;2023-04-08T03:27:01;100518.56;;;20.11;44.55
40075;BME280;26529;51.530;11.754;2023-04-08T03:29:26;100507.91;;;20.11;44.57
40075;BME280;26529;51.530;11.754;2023-04-08T03:31:52;100510.59;;;20.11;44.42
40075;BME280;26529;51.530;11.754;2023-04-08T03:34:17;100523.03;;;20.10;44.55
40075;BME280;26529;51.530;11.754;2023-04-08T03:36:43;100515.91;;;20.11;44.53
40075;BME280;26529;51.530;11.754;2023-04-08T03:39:08;100514.94;;;20.12;44.50
40075;BME280;26529;51.530;11.754;2023-04-08T03:41:34;100517.63;;;20.12;44.59
40075;BME280;26529;51.530;11.754;2023-04-08T03:44:00;100520.47;;;20.09;44.56
40075;BME280;26529;51.530;11.754;2023-04-08T03:46:25;100528.44;;;20.09;44.63
40075;BME280;26529;51.530;11.754;2023-04-08T03:48:51;100522.28;;;20.08;44.51
40075;BME280;26529;51.530;11.754;2023-04-08T03:51:16;100521.41;;;20.08;44.71
40075;BME280;26529;51.530;11.754;2023-04-08T03:53:42;100524.06;;;20.08;44.57
40075;BME280;26529;51.530;11.754;2023-04-08T03:56:07;100524.06;;;20.08;44.58
40075;BME280;26529;51.530;11.754;2023-04-08T03:58:33;100527.69;;;20.06;44.57
40075;BME280;26529;51.530;11.754;2023-04-08T04:00:58;100531.09;;;20.09;44.54
40075;BME280;26529;51.530;11.754;2023-04-08T04:03:24;100532.06;;;20.08;44.56
40075;BME280;26529;51.530;11.754;2023-04-08T04:05:49;100541.97;;;20.05;44.57
40075;BME280;26529;51.530;11.754;2023-04-08T04:08:15;100539.28;;;20.05;44.78
40075;BME280;26529;51.530;11.754;2023-04-08T04:10:40;100550.91;;;20.04;44.57
40075;BME280;26529;51.530;11.754;2023-04-08T04:13:06;100554.31;;;20.06;44.71
40075;BME280;26529;51.530;11.754;2023-04-08T04:15:31;100551.75;;;20.05;44.60
40075;BME280;26529;51.530;11.754;2023-04-08T04:17:57;100556.97;;;20.06;44.53
40075;BME280;26529;51.530;11.754;2023-04-08T04:20:22;100549.94;;;20.05;44.63
40075;BME280;26529;51.530;11.754;2023-04-08T04:22:50;100557.94;;;20.05;44.67
40075;BME280;26529;51.530;11.754;2023-04-08T04:25:15;100556.22;;;20.04;44.57
40075;BME280;26529;51.530;11.754;2023-04-08T04:27:41;100563.25;;;20.05;44.66
40075;BME280;26529;51.530;11.754;2023-04-08T04:30:07;100564.97;;;20.06;44.70
40075;BME280;26529;51.530;11.754;2023-04-08T04:32:33;100562.50;;;20.03;44.64
40075;BME280;26529;51.530;11.754;2023-04-08T04:34:59;100569.53;;;20.04;44.52
40075;BME280;26529;51.530;11.754;2023-04-08T04:37:25;100575.81;;;20.03;44.68
40075;BME280;26529;51.530;11.754;2023-04-08T04:39:50;100575.81;;;20.03;44.66
40075;BME280;26529;51.530;11.754;2023-04-08T04:42:16;100574.84;;;20.04;44.61
40075;BME280;26529;51.530;11.754;2023-04-08T04:44:41;100574.78;;;20.06;44.57
40075;BME280;26529;51.530;11.754;2023-04-08T04:47:06;100577.53;;;20.04;44.53
40075;BME280;26529;51.530;11.754;2023-04-08T04:49:32;100574.09;;;20.02;44.77
40075;BME280;26529;51.530;11.754;2023-04-08T04:51:57;100576.66;;;20.04;44.53
40075;BME280;26529;51.530;11.754;2023-04-08T04:54:23;100573.25;;;20.02;44.69
40075;BME280;26529;51.530;11.754;2023-04-08T04:56:48;100574.09;;;20.02;44.63
40075;BME280;26529;51.530;11.754;2023-04-08T04:59:14;100577.53;;;20.04;44.52
40075;BME280;26529;51.530;11.754;2023-04-08T05:01:39;100575.16;;;20.00;44.62
40075;BME280;26529;51.530;11.754;2023-04-08T05:04:05;100580.47;;;20.00;44.69
40075;BME280;26529;51.530;11.754;2023-04-08T05:06:31;100577.69;;;20.01;44.59
40075;BME280;26529;51.530;11.754;2023-04-08T05:08:57;100589.28;;;20.00;44.63
40075;BME280;26529;51.530;11.754;2023-04-08T05:11:22;100594.63;;;20.00;44.71
40075;BME280;26529;51.530;11.754;2023-04-08T05:13:48;100593.66;;;20.01;44.47
40075;BME280;26529;51.530;11.754;2023-04-08T05:16:13;100598.97;;;20.01;44.52
40075;BME280;26529;51.530;11.754;2023-04-08T05:18:38;100589.28;;;20.00;44.59
40075;BME280;26529;51.530;11.754;2023-04-08T05:21:04;100593.66;;;20.01;44.61
40075;BME280;26529;51.530;11.754;2023-04-08T05:23:29;100589.28;;;20.00;44.47
40075;BME280;26529;51.530;11.754;2023-04-08T05:25:55;100591.97;;;20.00;44.62
40075;BME280;26529;51.530;11.754;2023-04-08T05:28:21;100597.28;;;20.00;44.54
40075;BME280;26529;51.530;11.754;2023-04-08T05:30:49;100587.59;;;19.99;44.56
40075;BME280;26529;51.530;11.754;2023-04-08T05:33:15;100595.56;;;19.99;44.70
40075;BME280;26529;51.530;11.754;2023-04-08T05:35:41;100600.59;;;20.04;44.60
40075;BME280;26529;51.530;11.754;2023-04-08T05:38:06;100603.19;;;20.05;44.54
40075;BME280;26529;51.530;11.754;2023-04-08T05:40:32;100603.84;;;20.09;44.46
40075;BME280;26529;51.530;11.754;2023-04-08T05:42:57;100612.50;;;20.13;44.63
40075;BME280;26529;51.530;11.754;2023-04-08T05:45:23;100612.31;;;20.16;44.70
40075;BME280;26529;51.530;11.754;2023-04-08T05:47:48;100603.16;;;20.20;44.89
40075;BME280;26529;51.530;11.754;2023-04-08T05:50:14;100606.56;;;20.22;44.61
40075;BME280;26529;51.530;11.754;2023-04-08T05:52:43;100615.13;;;20.27;44.95
40075;BME280;26529;51.530;11.754;2023-04-08T05:55:12;100612.38;;;20.29;44.92
40075;BME280;26529;51.530;11.754;2023-04-08T05:57:39;100608.47;;;20.34;45.09
40075;BME280;26529;51.530;11.754;2023-04-08T06:00:06;100608.84;;;20.43;45.10
40075;BME280;26529;51.530;11.754;2023-04-08T06:02:32;100607.91;;;20.44;45.34
40075;BME280;26529;51.530;11.754;2023-04-08T06:04:58;100612.06;;;20.48;45.78
40075;BME280;26529;51.530;11.754;2023-04-08T06:07:23;100619.13;;;20.49;45.13
40075;BME280;26529;51.530;11.754;2023-04-08T06:09:49;100626.59;;;20.57;45.98
40075;BME280;26529;51.530;11.754;2023-04-08T06:12:14;100632.13;;;20.54;45.61
40075;BME280;26529;51.530;11.754;2023-04-08T06:14:40;100636.41;;;20.56;45.61
40075;BME280;26529;51.530;11.754;2023-04-08T06:17:05;100643.25;;;20.60;45.70
40075;BME280;26529;51.530;11.754;2023-04-08T06:19:31;100645.44;;;20.68;45.92
40075;BME280;26529;51.530;11.754;2023-04-08T06:21:56;100651.41;;;20.72;46.19
40075;BME280;26529;51.530;11.754;2023-04-08T06:24:24;100641.59;;;20.72;46.38
40075;BME280;26529;51.530;11.754;2023-04-08T06:26:52;100647.47;;;20.78;46.38
40075;BME280;26529;51.530;11.754;2023-04-08T06:29:18;100643.22;;;20.75;46.20
40075;BME280;26529;51.530;11.754;2023-04-08T06:31:44;100629.88;;;20.75;46.12
40075;BME280;26529;51.530;11.754;2023-04-08T06:34:10;100620.09;;;20.76;46.21
40075;BME280;26529;51.530;11.754;2023-04-08T06:36:35;100638.53;;;20.79;45.96
40075;BME280;26529;51.530;11.754;2023-04-08T06:39:01;100649.19;;;20.79;45.96
40075;BME280;26529;51.530;11.754;2023-04-08T06:41:26;100651.09;;;20.77;46.13
40075;BME280;26529;51.530;11.754;2023-04-08T06:44:00;100649.31;;;20.77;45.81
40075;BME280;26529;51.530;11.754;2023-04-08T06:46:25;100656.34;;;20.78;45.73
40075;BME280;26529;51.530;11.754;2023-04-08T06:48:51;100663.59;;;20.76;45.78
40075;BME280;26529;51.530;11.754;2023-04-08T06:51:16;100667.97;;;20.77;45.46
40075;BME280;26529;51.530;11.754;2023-04-08T06:53:42;100669.03;;;20.74;45.63
40075;BME280;26529;51.530;11.754;2023-04-08T06:56:07;100673.47;;;20.74;45.57
40075;BME280;26529;51.530;11.754;2023-04-08T06:58:33;100671.69;;;20.74;45.50
40075;BME280;26529;51.530;11.754;2023-04-08T07:00:59;100665.47;;;20.74;45.51
40075;BME280;26529;51.530;11.754;2023-04-08T07:03:25;100661.88;;;20.75;45.64
40075;BME280;26529;51.530;11.754;2023-04-08T07:05:51;100665.47;;;20.74;45.51
40075;BME280;26529;51.530;11.754;2023-04-08T07:08:17;100677.09;;;20.73;45.51
40075;BME280;26529;51.530;11.754;2023-04-08T07:10:42;100678.91;;;20.72;45.44
40075;BME280;26529;51.530;11.754;2023-04-08T07:13:09;100678.91;;;20.72;45.43
40075;BME280;26529;51.530;11.754;2023-04-08T07:15:35;100679.97;;;20.70;45.17
40075;BME280;26529;51.530;11.754;2023-04-08T07:18:00;100684.34;;;20.71;45.44
40075;BME280;26529;51.530;11.754;2023-04-08T07:20:26;100687.84;;;20.71;45.26
40075;BME280;26529;51.530;11.754;2023-04-08T07:22:51;100685.09;;;20.73;45.30
40075;BME280;26529;51.530;11.754;2023-04-08T07:25:17;100688.72;;;20.72;45.57
40075;BME280;26529;51.530;11.754;2023-04-08T07:27:42;100692.34;;;20.71;45.38
40075;BME280;26529;51.530;11.754;2023-04-08T07:30:08;100683.56;;;20.69;45.53
40075;BME280;26529;51.530;11.754;2023-04-08T07:32:34;100686.16;;;20.70;45.43
40075;BME280;26529;51.530;11.754;2023-04-08T07:35:00;100687.97;;;20.70;45.63
40075;BME280;26529;51.530;11.754;2023-04-08T07:37:26;100697.66;;;20.71;45.51
40075;BME280;26529;51.530;11.754;2023-04-08T07:39:52;100691.38;;;20.72;45.26
40075;BME280;26529;51.530;11.754;2023-04-08T07:42:18;100692.13;;;20.74;45.54
40075;BME280;26529;51.530;11.754;2023-04-08T07:44:44;100696.63;;;20.73;45.54
40075;BME280;26529;51.530;11.754;2023-04-08T07:47:10;100700.91;;;20.76;45.81
40075;BME280;26529;51.530;11.754;2023-04-08T07:49:36;100694.63;;;20.77;45.71
40075;BME280;26529;51.530;11.754;2023-04-08T07:52:03;100693.66;;;20.78;45.67
40075;BME280;26529;51.530;11.754;2023-04-08T07:54:32;100692.69;;;20.79;45.70
40075;BME280;26529;51.530;11.754;2023-04-08T07:56:59;100692.59;;;20.81;45.40
40075;BME280;26529;51.530;11.754;2023-04-08T07:59:24;100701.44;;;20.81;45.48
40075;BME280;26529;51.530;11.754;2023-04-08T08:01:50;100706.91;;;20.80;45.47
40075;BME280;26529;51.530;11.754;2023-04-08T08:04:15;100706.03;;;20.79;45.52
40075;BME280;26529;51.530;11.754;2023-04-08T08:06:41;100707.72;;;20.80;45.50
40075;BME280;26529;51.530;11.754;2023-04-08T08:09:06;100707.72;;;20.80;45.41
40075;BME280;26529;51.530;11.754;2023-04-08T08:11:32;100706.03;;;20.79;45.61
40075;BME280;26529;51.530;11.754;2023-04-08T08:13:57;100707.72;;;20.80;45.40
40075;BME280;26529;51.530;11.754;2023-04-08T08:16:23;100709.44;;;20.81;45.37
40075;BME280;26529;51.530;11.754;2023-04-08T08:18:51;100714.78;;;20.81;45.33
40075;BME280;26529;51.530;11.754;2023-04-08T08:21:16;100720.09;;;20.81;45.28
40075;BME280;26529;51.530;11.754;2023-04-08T08:23:42;100727.13;;;20.82;45.30
40075;BME280;26529;51.530;11.754;2023-04-08T08:26:08;100728.97;;;20.82;45.28
40075;BME280;26529;51.530;11.754;2023-04-08T08:28:35;100730.75;;;20.81;45.26
40075;BME280;26529;51.530;11.754;2023-04-08T08:31:00;100723.63;;;20.82;45.23
40075;BME280;26529;51.530;11.754;2023-04-08T08:33:26;100725.44;;;20.81;45.33
40075;BME280;26529;51.530;11.754;2023-04-08T08:35:52;100720.09;;;20.81;45.35
40075;BME280;26529;51.530;11.754;2023-04-08T08:38:17;100731.63;;;20.82;45.13
40075;BME280;26529;51.530;11.754;2023-04-08T08:40:43;100729.81;;;20.82;45.02
40075;BME280;26529;51.530;11.754;2023-04-08T08:43:09;100736.97;;;20.82;45.18
40075;BME280;26529;51.530;11.754;2023-04-08T08:45:41;100739.53;;;20.83;45.14
40075;BME280;26529;51.530;11.754;2023-04-08T08:48:07;100747.53;;;20.83;45.04
40075;BME280;26529;51.530;11.754;2023-04-08T08:50:35;100746.66;;;20.83;45.33
40075;BME280;26529;51.530;11.754;2023-04-08T08:53:01;100751.06;;;20.84;45.25
40075;BME280;26529;51.530;11.754;2023-04-08T08:55:30;100749.06;;;20.87;45.01
40075;BME280;26529;51.530;11.754;2023-04-08T08:57:56;100757.94;;;20.88;45.09
40075;BME280;26529;51.530;11.754;2023-04-08T09:00:51;100768.28;;;20.93;45.22
40075;BME280;26529;51.530;11.754;2023-04-08T09:03:21;100765.63;;;20.93;45.27
40075;BME280;26529;51.530;11.754;2023-04-08T09:05:55;100768.00;;;20.97;45.04
40075;BME280;26529;51.530;11.754;2023-04-08T09:08:34;100768.84;;;20.98;45.16
40075;BME280;26529;51.530;11.754;2023-04-08T09:13:37;100775.03;;;20.98;45.06
40075;BME280;26529;51.530;11.754;2023-04-08T09:16:08;100782.06;;;20.99;45.21
40075;BME280;26529;51.530;11.754;2023-04-08T09:18:35;100781.69;;;21.06;44.99
40075;BME280;26529;51.530;11.754;2023-04-08T09:21:03;100789.59;;;21.07;44.96
40075;BME280;26529;51.530;11.754;2023-04-08T09:26:23;100789.78;;;21.04;45.09
40075;BME280;26529;51.530;11.754;2023-04-08T09:29:05;100792.56;;;21.03;45.10
40075;BME280;26529;51.530;11.754;2023-04-08T09:31:33;100794.25;;;21.04;44.84
40075;BME280;26529;51.530;11.754;2023-04-08T09:34:11;100793.41;;;21.03;44.96
40075;BME280;26529;51.530;11.754;2023-04-08T09:36:37;100792.56;;;21.03;45.06
40075;BME280;26529;51.530;11.754;2023-04-08T09:39:03;100803.00;;;21.06;44.83
40075;BME280;26529;51.530;11.754;2023-04-08T09:41:33;100800.53;;;21.17;44.35
40075;BME280;26529;51.530;11.754;2023-04-08T09:44:02;100803.72;;;21.37;43.86
40075;BME280;26529;51.530;11.754;2023-04-08T09:46:38;100806.25;;;21.53;43.68
40075;BME280;26529;51.530;11.754;2023-04-08T09:49:12;100806.56;;;21.76;43.31
40075;BME280;26529;51.530;11.754;2023-04-08T09:51:53;100799.13;;;21.81;43.43
40075;BME280;26529;51.530;11.754;2023-04-08T09:54:31;100809.25;;;21.61;44.13
40075;BME280;26529;51.530;11.754;2023-04-08T09:57:09;100804.72;;;21.49;44.26
40075;BME280;26529;51.530;11.754;2023-04-08T09:59:37;100805.13;;;21.42;44.30
40075;BME280;26529;51.530;11.754;2023-04-08T10:02:08;100814.09;;;21.41;43.82
40075;BME280;26529;51.530;11.754;2023-04-08T10:04:38;100811.72;;;21.37;44.31
40075;BME280;26529;51.530;11.754;2023-04-08T10:07:07;100812.59;;;21.37;44.27
40075;BME280;26529;51.530;11.754;2023-04-08T10:09:33;100809.16;;;21.35;44.24
40075;BME280;26529;51.530;11.754;2023-04-08T10:12:00;100809.91;;;21.37;44.17
40075;BME280;26529;51.530;11.754;2023-04-08T10:14:26;100804.78;;;21.34;44.24
40075;BME280;26529;51.530;11.754;2023-04-08T10:17:28;100813.81;;;21.32;44.22
40075;BME280;26529;51.530;11.754;2023-04-08T10:19:53;100814.88;;;21.29;44.38
40075;BME280;26529;51.530;11.754;2023-04-08T10:22:44;100815.84;;;21.28;44.55
40075;BME280;26529;51.530;11.754;2023-04-08T10:27:43;100811.53;;;21.25;44.45
40075;BME280;26529;51.530;11.754;2023-04-08T10:32:53;100810.63;;;21.26;44.57
40075;BME280;26529;51.530;11.754;2023-04-08T10:35:31;100814.22;;;21.25;44.64
40075;BME280;26529;51.530;11.754;2023-04-08T10:37:58;100804.41;;;21.26;44.74
40075;BME280;26529;51.530;11.754;2023-04-08T10:40:24;100809.75;;;21.26;45.01
40075;BME280;26529;51.530;11.754;2023-04-08T10:42:54;100803.38;;;21.28;44.91
40075;BME280;26529;51.530;11.754;2023-04-08T10:45:20;100811.47;;;21.27;44.81
40075;BME280;26529;51.530;11.754;2023-04-08T10:47:45;100818.72;;;21.25;44.72
40075;BME280;26529;51.530;11.754;2023-04-08T10:50:15;100815.41;;;21.07;42.52
40075;BME280;26529;51.530;11.754;2023-04-08T10:52:51;100812.28;;;20.85;41.28
40075;BME280;26529;51.530;11.754;2023-04-08T10:55:24;100813.59;;;20.78;40.07
40075;BME280;26529;51.530;11.754;2023-04-08T10:57:51;100813.59;;;20.64;39.61
40075;BME280;26529;51.530;11.754;2023-04-08T11:00:18;100810.34;;;20.58;39.47
40075;BME280;26529;51.530;11.754;2023-04-08T11:02:44;100809.97;;;20.65;39.43
40075;BME280;26529;51.530;11.754;2023-04-08T11:05:10;100813.97;;;20.72;39.88
40075;BME280;26529;51.530;11.754;2023-04-08T11:07:40;100821.94;;;20.72;40.24
40075;BME280;26529;51.530;11.754;2023-04-08T11:10:09;100818.41;;;20.71;40.34
40075;BME280;26529;51.530;11.754;2023-04-08T11:12:35;100810.41;;;20.71;40.94
40075;BME280;26529;51.530;11.754;2023-04-08T11:15:02;100814.13;;;20.69;41.71
40075;BME280;26529;51.530;11.754;2023-04-08T11:17:28;100812.25;;;20.71;41.87
40075;BME280;26529;51.530;11.754;2023-04-08T11:19:54;100815.97;;;20.68;41.76
40075;BME280;26529;51.530;11.754;2023-04-08T11:22:20;100822.91;;;20.71;42.00
40075;BME280;26529;51.530;11.754;2023-04-08T11:24:46;100820.41;;;20.68;42.13
40075;BME280;26529;51.530;11.754;2023-04-08T11:27:11;100824.03;;;20.67;42.18
40075;BME280;26529;51.530;11.754;2023-04-08T11:29:37;100818.78;;;20.65;42.16
40075;BME280;26529;51.530;11.754;2023-04-08T11:32:04;100822.53;;;20.63;42.22
40075;BME280;26529;51.530;11.754;2023-04-08T11:34:29;100818.91;;;20.64;42.25
40075;BME280;26529;51.530;11.754;2023-04-08T11:36:55;100813.59;;;20.64;42.32
40075;BME280;26529;51.530;11.754;2023-04-08T11:39:22;100815.28;;;20.65;42.55
40075;BME280;26529;51.530;11.754;2023-04-08T11:41:48;100815.28;;;20.65;42.48
40075;BME280;26529;51.530;11.754;2023-04-08T11:44:14;100818.91;;;20.64;42.74
40075;BME280;26529;51.530;11.754;2023-04-08T11:46:39;100812.63;;;20.65;42.64
40075;BME280;26529;51.530;11.754;2023-04-08T11:49:07;100818.91;;;20.64;42.87
40075;BME280;26529;51.530;11.754;2023-04-08T11:51:33;100817.19;;;20.63;42.84
40075;BME280;26529;51.530;11.754;2023-04-08T11:54:03;100810.91;;;20.64;42.73
40075;BME280;26529;51.530;11.754;2023-04-08T11:56:29;100811.88;;;20.63;42.80
40075;BME280;26529;51.530;11.754;2023-04-08T11:58:54;100820.69;;;20.63;42.91
40075;BME280;26529;51.530;11.754;2023-04-08T12:01:20;100816.41;;;20.60;42.98
40075;BME280;26529;51.530;11.754;2023-04-08T12:03:58;100818.13;;;20.61;42.74
40075;BME280;26529;51.530;11.754;2023-04-08T12:06:24;100815.66;;;20.58;42.80
40075;BME280;26529;51.530;11.754;2023-04-08T12:08:52;100817.38;;;20.59;42.86
40075;BME280;26529;51.530;11.754;2023-04-08T12:11:17;100819.28;;;20.57;42.99
40075;BME280;26529;51.530;11.754;2023-04-08T12:13:43;100822.69;;;20.59;42.96
40075;BME280;26529;51.530;11.754;2023-04-08T12:16:08;100827.06;;;20.60;42.97
40075;BME280;26529;51.530;11.754;2023-04-08T12:18:33;100826.13;;;20.61;43.05
40075;BME280;26529;51.530;11.754;2023-04-08T12:20:59;100834.13;;;20.61;43.14
40075;BME280;26529;51.530;11.754;2023-04-08T12:23:24;100827.84;;;20.63;43.03
40075;BME280;26529;51.530;11.754;2023-04-08T12:25:50;100829.66;;;20.62;42.92
40075;BME280;26529;51.530;11.754;2023-04-08T12:28:16;100827.84;;;20.63;43.17
40075;BME280;26529;51.530;11.754;2023-04-08T12:30:41;100832.41;;;20.60;43.43
40075;BME280;26529;51.530;11.754;2023-04-08T12:33:07;100832.41;;;20.60;43.32
40075;BME280;26529;51.530;11.754;2023-04-08T12:35:32;100832.41;;;20.60;43.26
40075;BME280;26529;51.530;11.754;2023-04-08T12:37:58;100837.72;;;20.60;43.36
40075;BME280;26529;51.530;11.754;2023-04-08T12:40:23;100833.34;;;20.59;43.39
40075;BME280;26529;51.530;11.754;2023-04-08T12:42:49;100833.34;;;20.59;43.49
40075;BME280;26529;51.530;11.754;2023-04-08T12:45:15;100829.94;;;20.57;43.47
40075;BME280;26529;51.530;11.754;2023-04-08T12:47:40;100835.28;;;20.57;43.20
40075;BME280;26529;51.530;11.754;2023-04-08T12:50:06;100825.44;;;20.58;43.51
40075;BME280;26529;51.530;11.754;2023-04-08T12:52:34;100827.16;;;20.59;43.45